sensor_id;sensor_type;location;lat;lon;timestamp;pressure;altitude;pressure_sealevel;temperature;humidity
35892;BME280;21993;42.672;23.296;2024-03-25T00:02:00;93523.53;;;7.95;72.96
35892;BME280;21993;42.672;23.296;2024-03-25T00:04:26;93513.59;;;7.81;72.64
35892;BME280;21993;42.672;23.296;2024-03-25T00:06:51;93501.50;;;7.62;72.06
35892;BME280;21993;42.672;23.296;2024-03-25T00:09:18;93504.91;;;7.45;73.34
35892;BME280;21993;42.672;23.296;2024-03-25T00:11:43;93497.81;;;7.55;73.51
35892;BME280;21993;42.672;23.296;2024-03-25T00:14:09;93494.63;;;7.61;73.19
35892;BME280;21993;42.672;23.296;2024-03-25T00:16:35;93477.91;;;7.54;73.02
35892;BME280;21993;42.672;23.296;2024-03-25T00:19:01;93481.56;;;7.61;72.91
35892;BME280;21993;42.672;23.296;2024-03-25T00:21:26;93483.59;;;7.49;72.45
35892;BME280;21993;42.672;23.296;2024-03-25T00:23:53;93479.38;;;7.56;73.64
35892;BME280;21993;42.672;23.296;2024-03-25T00:26:21;93480.75;;;7.60;74.03
35892;BME280;21993;42.672;23.296;2024-03-25T00:28:47;93470.38;;;7.51;72.92
35892;BME280;21993;42.672;23.296;2024-03-25T00:31:13;93467.84;;;7.59;72.91
35892;BME280;21993;42.672;23.296;2024-03-25T00:33:38;93460.75;;;7.51;73.85
35892;BME280;21993;42.672;23.296;2024-03-25T00:36:04;93468.59;;;7.51;73.77
35892;BME280;21993;42.672;23.296;2024-03-25T00:38:30;93464.19;;;7.52;75.35
35892;BME280;21993;42.672;23.296;2024-03-25T00:40:55;93459.63;;;7.54;74.75
35892;BME280;21993;42.672;23.296;2024-03-25T00:43:21;93451.78;;;7.54;75.32
35892;BME280;21993;42.672;23.296;2024-03-25T00:45:48;93461.00;;;7.58;74.75
35892;BME280;21993;42.672;23.296;2024-03-25T00:48:13;93462.31;;;7.62;76.13
35892;BME280;21993;42.672;23.296;2024-03-25T00:50:39;93464.56;;;7.75;75.15
35892;BME280;21993;42.672;23.296;2024-03-25T00:53:05;93472.34;;;7.67;75.21
35892;BME280;21993;42.672;23.296;2024-03-25T00:55:31;93464.75;;;7.46;74.79
35892;BME280;21993;42.672;23.296;2024-03-25T00:57:57;93457.81;;;7.37;74.07
35892;BME280;21993;42.672;23.296;2024-03-25T01:00:22;93463.72;;;7.39;74.41
35892;BME280;21993;42.672;23.296;2024-03-25T01:02:47;93447.84;;;7.32;74.31
35892;BME280;21993;42.672;23.296;2024-03-25T01:05:13;93451.88;;;7.44;74.72
35892;BME280;21993;42.672;23.296;2024-03-25T01:07:39;93441.03;;;7.39;74.73
35892;BME280;21993;42.672;23.296;2024-03-25T01:10:05;93439.19;;;7.31;74.12
35892;BME280;21993;42.672;23.296;2024-03-25T01:12:31;93422.56;;;7.32;74.34
35892;BME280;21993;42.672;23.296;2024-03-25T01:14:58;93413.38;;;7.28;74.76
35892;BME280;21993;42.672;23.296;2024-03-25T01:17:23;93404.06;;;7.26;74.12
35892;BME280;21993;42.672;23.296;2024-03-25T01:19:49;93406.19;;;7.30;74.91
35892;BME280;21993;42.672;23.296;2024-03-25T01:22:14;93403.66;;;7.39;74.64
35892;BME280;21993;42.672;23.296;2024-03-25T01:24:40;93405.09;;;7.51;74.63
35892;BME280;21993;42.672;23.296;2024-03-25T01:27:05;93414.00;;;7.58;75.39
35892;BME280;21993;42.672;23.296;2024-03-25T01:29:31;93405.75;;;7.71;75.47
35892;BME280;21993;42.672;23.296;2024-03-25T01:31:58;93411.97;;;7.70;76.20
35892;BME280;21993;42.672;23.296;2024-03-25T01:34:25;93407.03;;;7.67;75.90
35892;BME280;21993;42.672;23.296;2024-03-25T01:36:51;93419.88;;;7.78;75.24
35892;BME280;21993;42.672;23.296;2024-03-25T01:39:18;93427.84;;;7.94;75.02
35892;BME280;21993;42.672;23.296;2024-03-25T01:41:43;93424.19;;;7.87;75.92
35892;BME280;21993;42.672;23.296;2024-03-25T01:44:09;93425.81;;;7.88;75.60
35892;BME280;21993;42.672;23.296;2024-03-25T01:46:35;93425.88;;;7.96;74.39
35892;BME280;21993;42.672;23.296;2024-03-25T01:49:01;93413.63;;;7.97;75.39
35892;BME280;21993;42.672;23.296;2024-03-25T01:51:26;93423.81;;;8.00;75.84
35892;BME280;21993;42.672;23.296;2024-03-25T01:53:54;93419.06;;;8.03;74.96
35892;BME280;21993;42.672;23.296;2024-03-25T01:56:21;93422.34;;;8.05;75.19
35892;BME280;21993;42.672;23.296;2024-03-25T01:58:48;93439.75;;;7.97;75.18
35892;BME280;21993;42.672;23.296;2024-03-25T02:01:14;93441.94;;;8.01;75.17
35892;BME280;21993;42.672;23.296;2024-03-25T02:03:42;93446.94;;;7.95;73.64
35892;BME280;21993;42.672;23.296;2024-03-25T02:06:12;93453.97;;;7.94;74.82
35892;BME280;21993;42.672;23.296;2024-03-25T02:08:40;93461.78;;;7.94;73.32
35892;BME280;21993;42.672;23.296;2024-03-25T02:11:07;93465.91;;;7.79;73.48
35892;BME280;21993;42.672;23.296;2024-03-25T02:13:38;93463.13;;;7.80;73.46
35892;BME280;21993;42.672;23.296;2024-03-25T02:16:04;93465.09;;;7.78;72.89
35892;BME280;21993;42.672;23.296;2024-03-25T02:18:30;93457.09;;;7.62;72.72
35892;BME280;21993;42.672;23.296;2024-03-25T02:20:56;93453.28;;;7.56;72.75
35892;BME280;21993;42.672;23.296;2024-03-25T02:23:22;93461.41;;;7.53;73.41
35892;BME280;21993;42.672;23.296;2024-03-25T02:25:51;93449.50;;;7.51;73.30
35892;BME280;21993;42.672;23.296;2024-03-25T02:28:17;93447.25;;;7.56;73.20
35892;BME280;21993;42.672;23.296;2024-03-25T02:30:43;93450.81;;;7.55;73.09
35892;BME280;21993;42.672;23.296;2024-03-25T02:33:09;93458.00;;;7.53;72.35
35892;BME280;21993;42.672;23.296;2024-03-25T02:35:35;93457.31;;;7.51;73.05
35892;BME280;21993;42.672;23.296;2024-03-25T02:38:02;93458.72;;;7.45;73.27
35892;BME280;21993;42.672;23.296;2024-03-25T02:40:29;93457.75;;;7.46;73.22
35892;BME280;21993;42.672;23.296;2024-03-25T02:42:55;93455.06;;;7.38;73.60
35892;BME280;21993;42.672;23.296;2024-03-25T02:45:21;93452.28;;;7.40;72.78
35892;BME280;21993;42.672;23.296;2024-03-25T02:47:46;93456.69;;;7.39;72.43
35892;BME280;21993;42.672;23.296;2024-03-25T02:50:12;93462.00;;;7.47;72.55
35892;BME280;21993;42.672;23.296;2024-03-25T02:52:37;93479.53;;;7.37;73.78
35892;BME280;21993;42.672;23.296;2024-03-25T02:55:03;93465.47;;;7.20;73.15
35892;BME280;21993;42.672;23.296;2024-03-25T02:57:29;93475.50;;;7.25;73.79
35892;BME280;21993;42.672;23.296;2024-03-25T02:59:54;93474.06;;;7.30;73.09
35892;BME280;21993;42.672;23.296;2024-03-25T03:02:20;93476.00;;;7.28;72.92
35892;BME280;21993;42.672;23.296;2024-03-25T03:04:45;93483.47;;;7.23;72.37
35892;BME280;21993;42.672;23.296;2024-03-25T03:07:11;93476.50;;;7.14;71.68
35892;BME280;21993;42.672;23.296;2024-03-25T03:09:37;93483.38;;;7.15;72.54
35892;BME280;21993;42.672;23.296;2024-03-25T03:12:02;93493.72;;;7.07;71.35
35892;BME280;21993;42.672;23.296;2024-03-25T03:14:28;93487.38;;;7.10;70.85
35892;BME280;21993;42.672;23.296;2024-03-25T03:16:54;93483.75;;;7.20;70.09
35892;BME280;21993;42.672;23.296;2024-03-25T03:19:20;93484.56;;;7.21;69.57
35892;BME280;21993;42.672;23.296;2024-03-25T03:21:46;93479.34;;;7.21;69.46
35892;BME280;21993;42.672;23.296;2024-03-25T03:24:11;93479.88;;;7.24;70.26
35892;BME280;21993;42.672;23.296;2024-03-25T03:26:37;93482.63;;;7.23;69.13
35892;BME280;21993;42.672;23.296;2024-03-25T03:29:02;93492.22;;;7.32;70.02
35892;BME280;21993;42.672;23.296;2024-03-25T03:31:28;93506.00;;;7.24;69.75
35892;BME280;21993;42.672;23.296;2024-03-25T03:33:54;93506.81;;;7.25;68.93
35892;BME280;21993;42.672;23.296;2024-03-25T03:36:23;93493.91;;;7.23;68.93
35892;BME280;21993;42.672;23.296;2024-03-25T03:38:51;93503.66;;;7.21;68.85
35892;BME280;21993;42.672;23.296;2024-03-25T03:41:17;93492.53;;;7.19;68.90
35892;BME280;21993;42.672;23.296;2024-03-25T03:43:42;93501.19;;;7.20;68.78
35892;BME280;21993;42.672;23.296;2024-03-25T03:46:08;93500.28;;;7.11;68.88
35892;BME280;21993;42.672;23.296;2024-03-25T03:48:33;93511.56;;;7.29;69.19
35892;BME280;21993;42.672;23.296;2024-03-25T03:51:00;93513.09;;;7.32;68.66
35892;BME280;21993;42.672;23.296;2024-03-25T03:53:26;93508.97;;;7.29;69.91
35892;BME280;21993;42.672;23.296;2024-03-25T03:56:04;93515.88;;;7.21;69.39
35892;BME280;21993;42.672;23.296;2024-03-25T03:58:34;93511.41;;;7.31;68.90
35892;BME280;21993;42.672;23.296;2024-03-25T04:01:00;93518.63;;;7.47;69.36
35892;BME280;21993;42.672;23.296;2024-03-25T04:03:26;93524.97;;;7.44;68.33
35892;BME280;21993;42.672;23.296;2024-03-25T04:05:52;93539.75;;;7.53;67.20
35892;BME280;21993;42.672;23.296;2024-03-25T04:08:18;93538.91;;;7.35;66.88
35892;BME280;21993;42.672;23.296;2024-03-25T04:10:44;93546.44;;;7.38;67.59
35892;BME280;21993;42.672;23.296;2024-03-25T04:13:10;93545.25;;;7.32;66.49
35892;BME280;21993;42.672;23.296;2024-03-25T04:15:40;93551.78;;;7.37;67.39
35892;BME280;21993;42.672;23.296;2024-03-25T04:18:07;93549.59;;;7.42;66.88
35892;BME280;21993;42.672;23.296;2024-03-25T04:20:40;93544.16;;;7.25;66.28
35892;BME280;21993;42.672;23.296;2024-03-25T04:23:06;93545.91;;;7.34;66.56
35892;BME280;21993;42.672;23.296;2024-03-25T04:25:35;93547.50;;;7.18;66.86
35892;BME280;21993;42.672;23.296;2024-03-25T04:28:03;93560.59;;;7.08;67.20
35892;BME280;21993;42.672;23.296;2024-03-25T04:30:29;93564.72;;;7.01;67.00
35892;BME280;21993;42.672;23.296;2024-03-25T04:32:54;93559.31;;;7.12;66.10
35892;BME280;21993;42.672;23.296;2024-03-25T04:35:20;93573.91;;;7.05;67.20
35892;BME280;21993;42.672;23.296;2024-03-25T04:37:45;93581.00;;;7.13;66.64
35892;BME280;21993;42.672;23.296;2024-03-25T04:40:11;93589.09;;;7.19;66.51
35892;BME280;21993;42.672;23.296;2024-03-25T04:42:40;93591.78;;;7.00;66.53
35892;BME280;21993;42.672;23.296;2024-03-25T04:45:06;93607.56;;;6.89;66.25
35892;BME280;21993;42.672;23.296;2024-03-25T04:47:32;93606.19;;;6.94;66.36
35892;BME280;21993;42.672;23.296;2024-03-25T04:49:57;93601.84;;;6.85;66.78
35892;BME280;21993;42.672;23.296;2024-03-25T04:52:23;93610.91;;;6.81;66.53
35892;BME280;21993;42.672;23.296;2024-03-25T04:54:49;93609.91;;;7.01;66.91
35892;BME280;21993;42.672;23.296;2024-03-25T04:57:15;93611.56;;;6.93;66.85
35892;BME280;21993;42.672;23.296;2024-03-25T04:59:40;93608.22;;;7.10;66.63
35892;BME280;21993;42.672;23.296;2024-03-25T05:02:06;93612.38;;;6.93;66.30
35892;BME280;21993;42.672;23.296;2024-03-25T05:04:31;93618.63;;;6.73;66.80
35892;BME280;21993;42.672;23.296;2024-03-25T05:06:57;93609.38;;;6.78;66.98
35892;BME280;21993;42.672;23.296;2024-03-25T05:09:23;93608.41;;;6.89;65.86
35892;BME280;21993;42.672;23.296;2024-03-25T05:11:48;93613.88;;;6.96;66.14
35892;BME280;21993;42.672;23.296;2024-03-25T05:14:14;93620.84;;;7.05;66.52
35892;BME280;21993;42.672;23.296;2024-03-25T05:16:39;93613.03;;;7.05;66.33
35892;BME280;21993;42.672;23.296;2024-03-25T05:19:05;93607.16;;;6.93;66.54
35892;BME280;21993;42.672;23.296;2024-03-25T05:21:31;93617.41;;;7.14;65.86
35892;BME280;21993;42.672;23.296;2024-03-25T05:23:56;93622.66;;;7.04;65.61
35892;BME280;21993;42.672;23.296;2024-03-25T05:26:22;93633.50;;;7.10;66.07
35892;BME280;21993;42.672;23.296;2024-03-25T05:28:55;93631.69;;;7.20;66.31
35892;BME280;21993;42.672;23.296;2024-03-25T05:31:22;93637.59;;;7.12;65.37
35892;BME280;21993;42.672;23.296;2024-03-25T05:33:47;93642.41;;;7.17;65.12
35892;BME280;21993;42.672;23.296;2024-03-25T05:36:13;93638.31;;;7.04;64.77
35892;BME280;21993;42.672;23.296;2024-03-25T05:38:39;93642.19;;;6.91;64.75
35892;BME280;21993;42.672;23.296;2024-03-25T05:41:05;93647.50;;;7.09;65.50
35892;BME280;21993;42.672;23.296;2024-03-25T05:43:30;93644.06;;;7.18;64.52
35892;BME280;21993;42.672;23.296;2024-03-25T05:45:56;93664.81;;;7.10;64.52
35892;BME280;21993;42.672;23.296;2024-03-25T05:48:24;93666.97;;;7.14;64.69
35892;BME280;21993;42.672;23.296;2024-03-25T05:51:04;93667.22;;;7.30;63.88
35892;BME280;21993;42.672;23.296;2024-03-25T05:53:33;93672.47;;;7.21;63.69
35892;BME280;21993;42.672;23.296;2024-03-25T05:55:59;93667.53;;;7.18;64.42
35892;BME280;21993;42.672;23.296;2024-03-25T05:58:25;93674.69;;;7.16;64.57
35892;BME280;21993;42.672;23.296;2024-03-25T06:00:51;93673.56;;;7.18;64.73
35892;BME280;21993;42.672;23.296;2024-03-25T06:03:16;93678.97;;;7.07;64.66
35892;BME280;21993;42.672;23.296;2024-03-25T06:05:43;93683.19;;;7.18;64.38
35892;BME280;21993;42.672;23.296;2024-03-25T06:08:08;93683.75;;;7.12;64.29
35892;BME280;21993;42.672;23.296;2024-03-25T06:10:43;93683.63;;;7.03;64.42
35892;BME280;21993;42.672;23.296;2024-03-25T06:13:09;93695.13;;;7.20;64.25
35892;BME280;21993;42.672;23.296;2024-03-25T06:15:34;93694.81;;;7.43;63.61
35892;BME280;21993;42.672;23.296;2024-03-25T06:18:01;93692.53;;;7.67;64.11
35892;BME280;21993;42.672;23.296;2024-03-25T06:20:26;93705.09;;;7.81;63.28
35892;BME280;21993;42.672;23.296;2024-03-25T06:22:52;93709.44;;;8.00;63.31
35892;BME280;21993;42.672;23.296;2024-03-25T06:25:17;93707.81;;;7.89;62.27
35892;BME280;21993;42.672;23.296;2024-03-25T06:27:43;93704.13;;;7.92;62.44
35892;BME280;21993;42.672;23.296;2024-03-25T06:30:10;93710.59;;;8.15;61.87
35892;BME280;21993;42.672;23.296;2024-03-25T06:32:54;93714.22;;;8.32;61.08
35892;BME280;21993;42.672;23.296;2024-03-25T06:35:38;93712.25;;;8.44;60.09
35892;BME280;21993;42.672;23.296;2024-03-25T06:38:03;93713.84;;;8.27;60.21
35892;BME280;21993;42.672;23.296;2024-03-25T06:40:29;93723.03;;;8.31;59.73
35892;BME280;21993;42.672;23.296;2024-03-25T06:42:56;93728.53;;;8.38;60.40
35892;BME280;21993;42.672;23.296;2024-03-25T06:45:21;93715.31;;;8.57;59.35
35892;BME280;21993;42.672;23.296;2024-03-25T06:47:47;93727.38;;;8.68;59.50
35892;BME280;21993;42.672;23.296;2024-03-25T06:50:12;93731.41;;;8.80;59.11
35892;BME280;21993;42.672;23.296;2024-03-25T06:52:38;93739.34;;;8.88;59.26
35892;BME280;21993;42.672;23.296;2024-03-25T06:55:04;93743.84;;;8.96;58.57
35892;BME280;21993;42.672;23.296;2024-03-25T06:57:30;93747.19;;;9.06;57.33
35892;BME280;21993;42.672;23.296;2024-03-25T06:59:55;93741.59;;;9.19;57.88
35892;BME280;21993;42.672;23.296;2024-03-25T07:02:23;93747.94;;;9.16;57.14
35892;BME280;21993;42.672;23.296;2024-03-25T07:04:48;93743.91;;;9.22;57.16
35892;BME280;21993;42.672;23.296;2024-03-25T07:07:14;93743.53;;;9.35;56.60
35892;BME280;21993;42.672;23.296;2024-03-25T07:09:39;93754.19;;;9.41;56.76
35892;BME280;21993;42.672;23.296;2024-03-25T07:12:05;93758.63;;;9.67;56.43
35892;BME280;21993;42.672;23.296;2024-03-25T07:14:31;93752.28;;;9.69;55.41
35892;BME280;21993;42.672;23.296;2024-03-25T07:16:56;93754.06;;;9.69;55.25
35892;BME280;21993;42.672;23.296;2024-03-25T07:19:25;93761.84;;;9.78;54.48
35892;BME280;21993;42.672;23.296;2024-03-25T07:21:50;93750.88;;;9.83;54.17
35892;BME280;21993;42.672;23.296;2024-03-25T07:24:16;93762.91;;;9.94;54.38
35892;BME280;21993;42.672;23.296;2024-03-25T07:26:41;93768.69;;;10.05;54.92
35892;BME280;21993;42.672;23.296;2024-03-25T07:29:07;93761.66;;;10.06;54.61
35892;BME280;21993;42.672;23.296;2024-03-25T07:31:33;93768.69;;;10.05;54.25
35892;BME280;21993;42.672;23.296;2024-03-25T07:33:58;93767.06;;;10.30;53.22
35892;BME280;21993;42.672;23.296;2024-03-25T07:36:24;93751.50;;;10.37;52.37
35892;BME280;21993;42.672;23.296;2024-03-25T07:38:49;93756.78;;;10.45;52.87
35892;BME280;21993;42.672;23.296;2024-03-25T07:41:15;93755.66;;;10.48;52.88
35892;BME280;21993;42.672;23.296;2024-03-25T07:43:41;93750.84;;;10.77;52.96
35892;BME280;21993;42.672;23.296;2024-03-25T07:46:06;93764.94;;;10.84;50.86
35892;BME280;21993;42.672;23.296;2024-03-25T07:48:32;93758.22;;;10.82;51.47
35892;BME280;21993;42.672;23.296;2024-03-25T07:50:58;93760.53;;;10.93;51.94
35892;BME280;21993;42.672;23.296;2024-03-25T07:53:23;93757.28;;;11.15;51.51
35892;BME280;21993;42.672;23.296;2024-03-25T07:55:49;93770.25;;;11.33;51.24
35892;BME280;21993;42.672;23.296;2024-03-25T07:58:16;93760.25;;;11.28;50.35
35892;BME280;21993;42.672;23.296;2024-03-25T08:00:42;93754.66;;;11.32;50.04
35892;BME280;21993;42.672;23.296;2024-03-25T08:03:10;93759.13;;;11.47;50.26
35892;BME280;21993;42.672;23.296;2024-03-25T08:05:36;93764.84;;;11.59;49.95
35892;BME280;21993;42.672;23.296;2024-03-25T08:08:01;93761.25;;;11.52;49.60
35892;BME280;21993;42.672;23.296;2024-03-25T08:10:31;93764.72;;;11.61;49.61
35892;BME280;21993;42.672;23.296;2024-03-25T08:12:57;93756.97;;;11.92;49.39
35892;BME280;21993;42.672;23.296;2024-03-25T08:15:22;93768.44;;;12.07;49.62
35892;BME280;21993;42.672;23.296;2024-03-25T08:17:51;93767.06;;;12.27;48.68
35892;BME280;21993;42.672;23.296;2024-03-25T08:20:17;93771.47;;;12.43;47.99
35892;BME280;21993;42.672;23.296;2024-03-25T08:22:42;93781.59;;;12.62;47.82
35892;BME280;21993;42.672;23.296;2024-03-25T08:25:09;93785.09;;;12.55;46.84
35892;BME280;21993;42.672;23.296;2024-03-25T08:27:34;93788.66;;;12.70;47.20
35892;BME280;21993;42.672;23.296;2024-03-25T08:30:00;93775.34;;;12.94;47.11
35892;BME280;21993;42.672;23.296;2024-03-25T08:32:25;93788.28;;;13.12;46.14
35892;BME280;21993;42.672;23.296;2024-03-25T08:34:51;93784.78;;;13.20;45.98
35892;BME280;21993;42.672;23.296;2024-03-25T08:37:16;93794.97;;;13.23;44.19
35892;BME280;21993;42.672;23.296;2024-03-25T08:39:42;93802.22;;;13.29;45.13
35892;BME280;21993;42.672;23.296;2024-03-25T08:42:08;93794.81;;;13.47;44.49
35892;BME280;21993;42.672;23.296;2024-03-25T08:44:33;93787.13;;;13.61;44.04
35892;BME280;21993;42.672;23.296;2024-03-25T08:46:59;93797.53;;;13.39;44.03
35892;BME280;21993;42.672;23.296;2024-03-25T08:49:24;93793.19;;;13.46;44.48
35892;BME280;21993;42.672;23.296;2024-03-25T08:51:49;93791.25;;;13.40;44.32
35892;BME280;21993;42.672;23.296;2024-03-25T08:54:15;93781.41;;;13.57;43.77
35892;BME280;21993;42.672;23.296;2024-03-25T08:56:40;93804.75;;;13.83;43.54
35892;BME280;21993;42.672;23.296;2024-03-25T08:59:06;93800.63;;;14.03;44.27
35892;BME280;21993;42.672;23.296;2024-03-25T09:01:34;93802.09;;;14.06;43.55
35892;BME280;21993;42.672;23.296;2024-03-25T09:04:00;93814.41;;;14.14;43.04
35892;BME280;21993;42.672;23.296;2024-03-25T09:06:27;93814.63;;;13.89;42.98
35892;BME280;21993;42.672;23.296;2024-03-25T09:08:53;93820.91;;;13.88;43.23
35892;BME280;21993;42.672;23.296;2024-03-25T09:11:37;93804.38;;;14.09;42.74
35892;BME280;21993;42.672;23.296;2024-03-25T09:14:02;93811.69;;;14.22;42.30
35892;BME280;21993;42.672;23.296;2024-03-25T09:16:31;93822.16;;;14.30;42.17
35892;BME280;21993;42.672;23.296;2024-03-25T09:18:57;93827.69;;;14.20;41.33
35892;BME280;21993;42.672;23.296;2024-03-25T09:21:23;93810.34;;;14.03;42.10
35892;BME280;21993;42.672;23.296;2024-03-25T09:23:50;93817.19;;;13.74;43.05
35892;BME280;21993;42.672;23.296;2024-03-25T09:26:15;93822.19;;;13.69;42.69
35892;BME280;21993;42.672;23.296;2024-03-25T09:28:41;93819.00;;;13.51;42.96
35892;BME280;21993;42.672;23.296;2024-03-25T09:31:06;93837.56;;;13.35;43.43
35892;BME280;21993;42.672;23.296;2024-03-25T09:33:32;93820.06;;;13.42;43.56
35892;BME280;21993;42.672;23.296;2024-03-25T09:35:58;93821.25;;;13.39;43.59
35892;BME280;21993;42.672;23.296;2024-03-25T09:38:23;93832.69;;;13.23;43.98
35892;BME280;21993;42.672;23.296;2024-03-25T09:40:52;93829.03;;;13.33;43.58
35892;BME280;21993;42.672;23.296;2024-03-25T09:43:48;93825.97;;;13.21;43.28
35892;BME280;21993;42.672;23.296;2024-03-25T09:46:15;93828.75;;;13.19;43.39
35892;BME280;21993;42.672;23.296;2024-03-25T09:48:42;93816.03;;;12.92;44.38
35892;BME280;21993;42.672;23.296;2024-03-25T09:51:09;93826.13;;;12.80;44.12
35892;BME280;21993;42.672;23.296;2024-03-25T09:53:35;93831.56;;;12.79;44.74
35892;BME280;21993;42.672;23.296;2024-03-25T09:56:01;93822.72;;;12.72;44.61
35892;BME280;21993;42.672;23.296;2024-03-25T09:58:27;93832.22;;;12.81;44.72
35892;BME280;21993;42.672;23.296;2024-03-25T10:00:54;93831.63;;;12.62;44.26
35892;BME280;21993;42.672;23.296;2024-03-25T10:03:21;93823.88;;;12.61;43.63
35892;BME280;21993;42.672;23.296;2024-03-25T10:05:47;93833.75;;;12.59;44.23
35892;BME280;21993;42.672;23.296;2024-03-25T10:08:12;93829.97;;;12.70;44.86
35892;BME280;21993;42.672;23.296;2024-03-25T10:10:38;93830.94;;;12.68;43.99
35892;BME280;21993;42.672;23.296;2024-03-25T10:13:04;93835.91;;;12.63;43.63
35892;BME280;21993;42.672;23.296;2024-03-25T10:15:30;93833.91;;;12.65;43.58
35892;BME280;21993;42.672;23.296;2024-03-25T10:17:56;93838.75;;;12.93;43.45
35892;BME280;21993;42.672;23.296;2024-03-25T10:20:22;93847.88;;;12.74;43.87
35892;BME280;21993;42.672;23.296;2024-03-25T10:22:47;93842.94;;;12.71;43.69
35892;BME280;21993;42.672;23.296;2024-03-25T10:25:26;93826.59;;;12.45;43.74
35892;BME280;21993;42.672;23.296;2024-03-25T10:27:59;93832.97;;;12.42;44.14
35892;BME280;21993;42.672;23.296;2024-03-25T10:30:26;93836.22;;;12.60;43.30
35892;BME280;21993;42.672;23.296;2024-03-25T10:33:01;93835.91;;;12.63;42.52
35892;BME280;21993;42.672;23.296;2024-03-25T10:35:29;93844.28;;;12.59;41.32
35892;BME280;21993;42.672;23.296;2024-03-25T10:37:58;93832.25;;;12.73;41.30
35892;BME280;21993;42.672;23.296;2024-03-25T10:40:30;93836.41;;;12.51;42.42
35892;BME280;21993;42.672;23.296;2024-03-25T10:43:04;93849.34;;;12.77;41.49
35892;BME280;21993;42.672;23.296;2024-03-25T10:45:33;93837.13;;;12.84;40.62
35892;BME280;21993;42.672;23.296;2024-03-25T10:48:03;93845.59;;;13.02;40.96
35892;BME280;21993;42.672;23.296;2024-03-25T10:50:31;93825.84;;;13.06;40.76
35892;BME280;21993;42.672;23.296;2024-03-25T10:52:59;93834.25;;;13.02;39.93
35892;BME280;21993;42.672;23.296;2024-03-25T10:55:26;93826.66;;;13.07;39.68
35892;BME280;21993;42.672;23.296;2024-03-25T10:57:52;93836.75;;;13.03;38.82
35892;BME280;21993;42.672;23.296;2024-03-25T11:00:19;93830.66;;;12.94;39.70
35892;BME280;21993;42.672;23.296;2024-03-25T11:02:47;93829.38;;;12.90;38.06
35892;BME280;21993;42.672;23.296;2024-03-25T11:05:13;93818.69;;;12.84;39.81
35892;BME280;21993;42.672;23.296;2024-03-25T11:07:40;93825.31;;;12.80;40.18
35892;BME280;21993;42.672;23.296;2024-03-25T11:10:07;93821.16;;;12.85;40.10
35892;BME280;21993;42.672;23.296;2024-03-25T11:12:40;93819.97;;;12.96;40.24
35892;BME280;21993;42.672;23.296;2024-03-25T11:15:06;93824.59;;;12.86;40.71
35892;BME280;21993;42.672;23.296;2024-03-25T11:17:33;93826.44;;;13.16;41.18
35892;BME280;21993;42.672;23.296;2024-03-25T11:20:09;93831.94;;;13.07;41.19
35892;BME280;21993;42.672;23.296;2024-03-25T11:22:36;93834.00;;;12.88;41.27
35892;BME280;21993;42.672;23.296;2024-03-25T11:25:06;93819.53;;;13.23;41.09
35892;BME280;21993;42.672;23.296;2024-03-25T11:27:35;93835.94;;;13.34;41.94
35892;BME280;21993;42.672;23.296;2024-03-25T11:30:01;93847.06;;;13.21;42.96
35892;BME280;21993;42.672;23.296;2024-03-25T11:32:28;93845.06;;;13.15;42.92
35892;BME280;21993;42.672;23.296;2024-03-25T11:34:54;93848.44;;;13.40;43.02
35892;BME280;21993;42.672;23.296;2024-03-25T11:37:19;93838.28;;;13.29;43.12
35892;BME280;21993;42.672;23.296;2024-03-25T11:39:45;93838.44;;;13.27;43.24
35892;BME280;21993;42.672;23.296;2024-03-25T11:42:12;93829.03;;;13.33;42.84
35892;BME280;21993;42.672;23.296;2024-03-25T11:44:38;93843.50;;;13.60;42.93
35892;BME280;21993;42.672;23.296;2024-03-25T11:47:07;93856.06;;;13.58;42.74
35892;BME280;21993;42.672;23.296;2024-03-25T11:49:38;93839.00;;;13.91;42.07
35892;BME280;21993;42.672;23.296;2024-03-25T11:52:06;93832.84;;;13.99;41.84
35892;BME280;21993;42.672;23.296;2024-03-25T11:54:32;93841.53;;;14.22;41.70
35892;BME280;21993;42.672;23.296;2024-03-25T11:56:58;93839.84;;;14.29;41.86
35892;BME280;21993;42.672;23.296;2024-03-25T11:59:25;93837.03;;;14.08;41.50
35892;BME280;21993;42.672;23.296;2024-03-25T12:01:50;93846.16;;;14.20;41.13
35892;BME280;21993;42.672;23.296;2024-03-25T12:04:17;93832.31;;;14.18;40.39
35892;BME280;21993;42.672;23.296;2024-03-25T12:06:43;93832.72;;;14.30;39.75
35892;BME280;21993;42.672;23.296;2024-03-25T12:09:10;93844.88;;;14.54;39.68
35892;BME280;21993;42.672;23.296;2024-03-25T12:11:55;93847.56;;;14.31;39.17
35892;BME280;21993;42.672;23.296;2024-03-25T12:14:22;93855.44;;;14.16;39.54
35892;BME280;21993;42.672;23.296;2024-03-25T12:16:49;93840.19;;;14.03;39.77
35892;BME280;21993;42.672;23.296;2024-03-25T12:19:17;93853.25;;;14.05;40.59
35892;BME280;21993;42.672;23.296;2024-03-25T12:21:43;93843.63;;;13.89;40.83
35892;BME280;21993;42.672;23.296;2024-03-25T12:24:09;93841.44;;;13.93;40.07
35892;BME280;21993;42.672;23.296;2024-03-25T12:26:36;93844.75;;;13.72;40.33
35892;BME280;21993;42.672;23.296;2024-03-25T12:29:02;93839.94;;;13.75;40.17
35892;BME280;21993;42.672;23.296;2024-03-25T12:31:29;93855.59;;;13.77;40.34
35892;BME280;21993;42.672;23.296;2024-03-25T12:33:55;93850.31;;;13.77;40.69
35892;BME280;21993;42.672;23.296;2024-03-25T12:36:21;93848.78;;;13.83;40.03
35892;BME280;21993;42.672;23.296;2024-03-25T12:38:54;93847.72;;;13.92;40.11
35892;BME280;21993;42.672;23.296;2024-03-25T12:41:22;93843.97;;;14.09;39.59
35892;BME280;21993;42.672;23.296;2024-03-25T12:43:50;93845.06;;;14.15;39.32
35892;BME280;21993;42.672;23.296;2024-03-25T12:46:16;93855.69;;;14.06;39.39
35892;BME280;21993;42.672;23.296;2024-03-25T12:48:43;93849.84;;;13.96;39.44
35892;BME280;21993;42.672;23.296;2024-03-25T12:51:14;93852.75;;;14.01;39.26
35892;BME280;21993;42.672;23.296;2024-03-25T12:53:39;93853.13;;;13.75;39.50